sensor_id;sensor_type;location;lat;lon;timestamp;P1;durP1;ratioP1;P2;durP2;ratioP2
37777;SDS011;23615;51.506;7.678;2023-03-12T00:02:14;2.80;;;2.50;;
37777;SDS011;23615;51.506;7.678;2023-03-12T00:04:39;2.57;;;2.20;;
37777;SDS011;23615;51.506;7.678;2023-03-12T00:07:05;3.30;;;2.37;;
37777;SDS011;23615;51.506;7.678;2023-03-12T00:09:35;2.63;;;1.93;;
37777;SDS011;23615;51.506;7.678;2023-03-12T00:12:02;2.20;;;1.90;;
37777;SDS011;23615;51.506;7.678;2023-03-12T00:14:27;2.50;;;2.30;;
37777;SDS011;23615;51.506;7.678;2023-03-12T00:16:53;2.65;;;2.25;;
37777;SDS011;23615;51.506;7.678;2023-03-12T00:19:19;21.40;;;18.92;;
37777;SDS011;23615;51.506;7.678;2023-03-12T00:21:45;16.03;;;14.33;;
37777;SDS011;23615;51.506;7.678;2023-03-12T00:24:10;10.97;;;9.70;;
37777;SDS011;23615;51.506;7.678;2023-03-12T00:26:35;8.60;;;7.70;;
37777;SDS011;23615;51.506;7.678;2023-03-12T00:29:00;5.47;;;4.90;;
37777;SDS011;23615;51.506;7.678;2023-03-12T00:31:27;4.20;;;3.70;;
37777;SDS011;23615;51.506;7.678;2023-03-12T00:33:56;3.25;;;2.95;;
37777;SDS011;23615;51.506;7.678;2023-03-12T00:36:24;3.28;;;2.90;;
37777;SDS011;23615;51.506;7.678;2023-03-12T00:38:52;3.33;;;2.38;;
37777;SDS011;23615;51.506;7.678;2023-03-12T00:41:18;2.15;;;1.85;;
37777;SDS011;23615;51.506;7.678;2023-03-12T00:43:45;2.45;;;2.00;;
37777;SDS011;23615;51.506;7.678;2023-03-12T00:46:14;3.50;;;2.05;;
37777;SDS011;23615;51.506;7.678;2023-03-12T00:48:39;3.17;;;1.90;;
37777;SDS011;23615;51.506;7.678;2023-03-12T00:51:05;2.58;;;2.10;;
37777;SDS011;23615;51.506;7.678;2023-03-12T00:53:31;2.90;;;1.50;;
37777;SDS011;23615;51.506;7.678;2023-03-12T00:55:56;1.60;;;1.30;;
37777;SDS011;23615;51.506;7.678;2023-03-12T00:58:21;1.67;;;1.40;;
37777;SDS011;23615;51.506;7.678;2023-03-12T01:00:47;1.43;;;1.33;;
37777;SDS011;23615;51.506;7.678;2023-03-12T01:03:12;1.93;;;1.20;;
37777;SDS011;23615;51.506;7.678;2023-03-12T01:05:37;1.50;;;1.27;;
37777;SDS011;23615;51.506;7.678;2023-03-12T01:08:05;1.95;;;1.13;;
37777;SDS011;23615;51.506;7.678;2023-03-12T01:10:31;1.63;;;1.20;;
37777;SDS011;23615;51.506;7.678;2023-03-12T01:12:56;1.65;;;1.30;;
37777;SDS011;23615;51.506;7.678;2023-03-12T01:15:22;3.13;;;1.42;;
37777;SDS011;23615;51.506;7.678;2023-03-12T01:17:47;1.17;;;0.97;;
37777;SDS011;23615;51.506;7.678;2023-03-12T01:20:13;1.20;;;0.97;;
37777;SDS011;23615;51.506;7.678;2023-03-12T01:22:38;1.20;;;1.10;;
37777;SDS011;23615;51.506;7.678;2023-03-12T01:25:04;2.13;;;1.10;;
37777;SDS011;23615;51.506;7.678;2023-03-12T01:27:29;1.40;;;0.90;;
37777;SDS011;23615;51.506;7.678;2023-03-12T01:29:55;1.70;;;1.27;;
37777;SDS011;23615;51.506;7.678;2023-03-12T01:32:20;1.63;;;1.20;;
37777;SDS011;23615;51.506;7.678;2023-03-12T01:34:45;1.20;;;1.03;;
37777;SDS011;23615;51.506;7.678;2023-03-12T01:37:11;1.33;;;1.23;;
37777;SDS011;23615;51.506;7.678;2023-03-12T01:39:36;1.60;;;0.97;;
37777;SDS011;23615;51.506;7.678;2023-03-12T01:42:02;1.60;;;1.40;;
37777;SDS011;23615;51.506;7.678;2023-03-12T01:44:28;1.83;;;1.35;;
37777;SDS011;23615;51.506;7.678;2023-03-12T01:46:53;1.63;;;1.50;;
37777;SDS011;23615;51.506;7.678;2023-03-12T01:51:45;2.63;;;1.90;;
37777;SDS011;23615;51.506;7.678;2023-03-12T01:54:22;2.03;;;1.48;;
37777;SDS011;23615;51.506;7.678;2023-03-12T01:56:51;1.88;;;1.38;;
37777;SDS011;23615;51.506;7.678;2023-03-12T01:59:19;2.37;;;1.20;;
37777;SDS011;23615;51.506;7.678;2023-03-12T02:01:49;1.42;;;1.13;;
37777;SDS011;23615;51.506;7.678;2023-03-12T02:04:15;1.25;;;1.00;;
37777;SDS011;23615;51.506;7.678;2023-03-12T02:06:45;1.50;;;0.90;;
37777;SDS011;23615;51.506;7.678;2023-03-12T02:09:16;0.77;;;0.57;;
37777;SDS011;23615;51.506;7.678;2023-03-12T02:11:44;1.30;;;0.80;;
37777;SDS011;23615;51.506;7.678;2023-03-12T02:14:09;1.07;;;0.80;;
37777;SDS011;23615;51.506;7.678;2023-03-12T02:16:34;2.60;;;1.30;;
37777;SDS011;23615;51.506;7.678;2023-03-12T02:19:00;1.83;;;0.90;;
37777;SDS011;23615;51.506;7.678;2023-03-12T02:21:29;1.90;;;1.00;;
37777;SDS011;23615;51.506;7.678;2023-03-12T02:24:11;0.85;;;0.70;;
37777;SDS011;23615;51.506;7.678;2023-03-12T02:26:49;1.10;;;1.00;;
37777;SDS011;23615;51.506;7.678;2023-03-12T02:29:14;1.60;;;0.90;;
37777;SDS011;23615;51.506;7.678;2023-03-12T02:31:44;1.75;;;0.63;;
37777;SDS011;23615;51.506;7.678;2023-03-12T02:34:14;1.20;;;0.60;;
37777;SDS011;23615;51.506;7.678;2023-03-12T02:36:40;1.23;;;0.80;;
37777;SDS011;23615;51.506;7.678;2023-03-12T02:39:05;0.98;;;0.88;;
37777;SDS011;23615;51.506;7.678;2023-03-12T02:41:32;0.77;;;0.70;;
37777;SDS011;23615;51.506;7.678;2023-03-12T02:44:05;1.10;;;0.57;;
37777;SDS011;23615;51.506;7.678;2023-03-12T02:46:37;0.60;;;0.40;;
37777;SDS011;23615;51.506;7.678;2023-03-12T02:49:05;0.90;;;0.40;;
37777;SDS011;23615;51.506;7.678;2023-03-12T02:51:30;0.50;;;0.33;;
37777;SDS011;23615;51.506;7.678;2023-03-12T02:53:56;2.13;;;0.80;;
37777;SDS011;23615;51.506;7.678;2023-03-12T02:56:22;0.87;;;0.43;;
37777;SDS011;23615;51.506;7.678;2023-03-12T02:58:49;0.43;;;0.40;;
37777;SDS011;23615;51.506;7.678;2023-03-12T03:01:15;0.75;;;0.40;;
37777;SDS011;23615;51.506;7.678;2023-03-12T03:03:40;0.35;;;0.30;;
37777;SDS011;23615;51.506;7.678;2023-03-12T03:06:06;0.70;;;0.43;;
37777;SDS011;23615;51.506;7.678;2023-03-12T03:08:31;0.90;;;0.30;;
37777;SDS011;23615;51.506;7.678;2023-03-12T03:10:56;0.60;;;0.40;;
37777;SDS011;23615;51.506;7.678;2023-03-12T03:13:23;1.20;;;0.40;;
37777;SDS011;23615;51.506;7.678;2023-03-12T03:15:48;0.63;;;0.30;;
37777;SDS011;23615;51.506;7.678;2023-03-12T03:18:13;1.00;;;0.43;;
37777;SDS011;23615;51.506;7.678;2023-03-12T03:20:39;1.70;;;0.40;;
37777;SDS011;23615;51.506;7.678;2023-03-12T03:23:04;0.77;;;0.50;;
37777;SDS011;23615;51.506;7.678;2023-03-12T03:25:29;0.87;;;0.30;;
37777;SDS011;23615;51.506;7.678;2023-03-12T03:27:56;0.60;;;0.30;;
37777;SDS011;23615;51.506;7.678;2023-03-12T03:30:22;0.63;;;0.50;;
37777;SDS011;23615;51.506;7.678;2023-03-12T03:32:47;0.57;;;0.30;;
37777;SDS011;23615;51.506;7.678;2023-03-12T03:35:13;1.50;;;0.40;;
37777;SDS011;23615;51.506;7.678;2023-03-12T03:37:39;1.00;;;0.30;;
37777;SDS011;23615;51.506;7.678;2023-03-12T03:40:05;0.97;;;0.63;;
37777;SDS011;23615;51.506;7.678;2023-03-12T03:42:31;1.80;;;0.50;;
37777;SDS011;23615;51.506;7.678;2023-03-12T03:44:56;0.57;;;0.30;;
37777;SDS011;23615;51.506;7.678;2023-03-12T03:47:21;0.77;;;0.30;;
37777;SDS011;23615;51.506;7.678;2023-03-12T03:49:46;1.40;;;0.70;;
37777;SDS011;23615;51.506;7.678;2023-03-12T03:52:12;0.50;;;0.30;;
37777;SDS011;23615;51.506;7.678;2023-03-12T03:54:37;1.17;;;0.47;;
37777;SDS011;23615;51.506;7.678;2023-03-12T03:57:02;1.83;;;0.50;;
37777;SDS011;23615;51.506;7.678;2023-03-12T03:59:28;1.50;;;0.40;;
37777;SDS011;23615;51.506;7.678;2023-03-12T04:01:53;1.20;;;0.40;;
37777;SDS011;23615;51.506;7.678;2023-03-12T04:04:19;4.40;;;0.68;;
37777;SDS011;23615;51.506;7.678;2023-03-12T04:06:45;0.52;;;0.40;;
37777;SDS011;23615;51.506;7.678;2023-03-12T04:09:10;1.87;;;0.43;;
37777;SDS011;23615;51.506;7.678;2023-03-12T04:11:35;2.53;;;0.43;;
37777;SDS011;23615;51.506;7.678;2023-03-12T04:14:01;0.85;;;0.40;;
37777;SDS011;23615;51.506;7.678;2023-03-12T04:16:27;1.45;;;0.47;;
37777;SDS011;23615;51.506;7.678;2023-03-12T04:18:52;0.70;;;0.70;;
37777;SDS011;23615;51.506;7.678;2023-03-12T04:21:18;0.43;;;0.30;;
37777;SDS011;23615;51.506;7.678;2023-03-12T04:23:43;1.63;;;0.40;;
37777;SDS011;23615;51.506;7.678;2023-03-12T04:26:09;0.90;;;0.30;;
37777;SDS011;23615;51.506;7.678;2023-03-12T04:28:34;0.50;;;0.30;;
37777;SDS011;23615;51.506;7.678;2023-03-12T04:31:02;0.73;;;0.40;;
37777;SDS011;23615;51.506;7.678;2023-03-12T04:33:32;0.55;;;0.30;;
37777;SDS011;23615;51.506;7.678;2023-03-12T04:35:59;1.30;;;0.40;;
37777;SDS011;23615;51.506;7.678;2023-03-12T04:38:25;0.77;;;0.47;;
37777;SDS011;23615;51.506;7.678;2023-03-12T04:41:00;1.13;;;0.40;;
37777;SDS011;23615;51.506;7.678;2023-03-12T04:43:31;0.80;;;0.30;;
37777;SDS011;23615;51.506;7.678;2023-03-12T04:45:57;0.80;;;0.30;;
37777;SDS011;23615;51.506;7.678;2023-03-12T04:48:23;0.80;;;0.50;;
37777;SDS011;23615;51.506;7.678;2023-03-12T04:50:49;1.50;;;0.43;;
37777;SDS011;23615;51.506;7.678;2023-03-12T04:53:14;0.90;;;0.50;;
37777;SDS011;23615;51.506;7.678;2023-03-12T04:55:40;1.10;;;0.30;;
37777;SDS011;23615;51.506;7.678;2023-03-12T04:58:06;0.65;;;0.30;;
37777;SDS011;23615;51.506;7.678;2023-03-12T05:00:31;0.50;;;0.30;;
37777;SDS011;23615;51.506;7.678;2023-03-12T05:02:56;0.50;;;0.30;;
37777;SDS011;23615;51.506;7.678;2023-03-12T05:05:22;0.80;;;0.30;;
37777;SDS011;23615;51.506;7.678;2023-03-12T05:07:47;0.50;;;0.50;;
37777;SDS011;23615;51.506;7.678;2023-03-12T05:10:12;0.60;;;0.40;;
37777;SDS011;23615;51.506;7.678;2023-03-12T05:12:38;0.40;;;0.30;;
37777;SDS011;23615;51.506;7.678;2023-03-12T05:15:05;1.60;;;0.30;;
37777;SDS011;23615;51.506;7.678;2023-03-12T05:17:30;0.60;;;0.40;;
37777;SDS011;23615;51.506;7.678;2023-03-12T05:19:56;1.33;;;0.40;;
37777;SDS011;23615;51.506;7.678;2023-03-12T05:22:21;0.70;;;0.40;;
37777;SDS011;23615;51.506;7.678;2023-03-12T05:24:46;0.50;;;0.30;;
37777;SDS011;23615;51.506;7.678;2023-03-12T05:27:12;1.40;;;0.50;;
37777;SDS011;23615;51.506;7.678;2023-03-12T05:29:37;3.57;;;0.50;;
37777;SDS011;23615;51.506;7.678;2023-03-12T05:32:02;0.80;;;0.30;;
37777;SDS011;23615;51.506;7.678;2023-03-12T05:34:28;0.90;;;0.23;;
37777;SDS011;23615;51.506;7.678;2023-03-12T05:36:55;1.20;;;0.35;;
37777;SDS011;23615;51.506;7.678;2023-03-12T05:39:20;0.57;;;0.25;;
37777;SDS011;23615;51.506;7.678;2023-03-12T05:41:46;0.60;;;0.30;;
37777;SDS011;23615;51.506;7.678;2023-03-12T05:44:12;0.40;;;0.30;;
37777;SDS011;23615;51.506;7.678;2023-03-12T05:46:39;0.40;;;0.30;;
37777;SDS011;23615;51.506;7.678;2023-03-12T05:49:05;1.40;;;0.40;;
37777;SDS011;23615;51.506;7.678;2023-03-12T05:51:30;1.00;;;0.40;;
37777;SDS011;23615;51.506;7.678;2023-03-12T05:53:56;0.63;;;0.30;;
37777;SDS011;23615;51.506;7.678;2023-03-12T05:56:21;0.70;;;0.30;;
37777;SDS011;23615;51.506;7.678;2023-03-12T05:58:47;0.93;;;0.40;;
37777;SDS011;23615;51.506;7.678;2023-03-12T06:01:15;0.80;;;0.30;;
37777;SDS011;23615;51.506;7.678;2023-03-12T06:03:42;0.70;;;0.50;;
37777;SDS011;23615;51.506;7.678;2023-03-12T06:06:08;1.03;;;0.30;;
37777;SDS011;23615;51.506;7.678;2023-03-12T06:08:34;1.88;;;0.60;;
37777;SDS011;23615;51.506;7.678;2023-03-12T06:10:59;0.40;;;0.20;;
37777;SDS011;23615;51.506;7.678;2023-03-12T06:13:25;1.10;;;0.33;;
37777;SDS011;23615;51.506;7.678;2023-03-12T06:15:52;1.95;;;0.50;;
37777;SDS011;23615;51.506;7.678;2023-03-12T06:18:17;1.10;;;0.40;;
37777;SDS011;23615;51.506;7.678;2023-03-12T06:20:42;1.73;;;0.50;;
37777;SDS011;23615;51.506;7.678;2023-03-12T06:23:07;1.13;;;0.30;;
37777;SDS011;23615;51.506;7.678;2023-03-12T06:25:33;1.30;;;0.20;;
37777;SDS011;23615;51.506;7.678;2023-03-12T06:27:58;0.67;;;0.30;;
37777;SDS011;23615;51.506;7.678;2023-03-12T06:30:23;1.10;;;0.30;;
37777;SDS011;23615;51.506;7.678;2023-03-12T06:32:49;1.53;;;0.37;;
37777;SDS011;23615;51.506;7.678;2023-03-12T06:35:14;2.40;;;0.63;;
37777;SDS011;23615;51.506;7.678;2023-03-12T06:37:39;2.55;;;0.63;;
37777;SDS011;23615;51.506;7.678;2023-03-12T06:40:05;1.43;;;0.50;;
37777;SDS011;23615;51.506;7.678;2023-03-12T06:42:33;1.92;;;0.63;;
37777;SDS011;23615;51.506;7.678;2023-03-12T06:44:59;2.13;;;0.40;;
37777;SDS011;23615;51.506;7.678;2023-03-12T06:47:24;1.77;;;0.60;;
37777;SDS011;23615;51.506;7.678;2023-03-12T06:49:49;2.37;;;0.40;;
37777;SDS011;23615;51.506;7.678;2023-03-12T06:52:15;1.00;;;0.33;;
37777;SDS011;23615;51.506;7.678;2023-03-12T06:54:40;2.63;;;0.73;;
37777;SDS011;23615;51.506;7.678;2023-03-12T06:57:05;3.00;;;1.03;;
37777;SDS011;23615;51.506;7.678;2023-03-12T06:59:30;1.70;;;0.50;;
37777;SDS011;23615;51.506;7.678;2023-03-12T07:01:56;2.00;;;0.70;;
37777;SDS011;23615;51.506;7.678;2023-03-12T07:04:21;2.30;;;0.70;;
37777;SDS011;23615;51.506;7.678;2023-03-12T07:06:46;2.27;;;1.00;;
37777;SDS011;23615;51.506;7.678;2023-03-12T07:09:14;1.60;;;0.80;;
37777;SDS011;23615;51.506;7.678;2023-03-12T07:11:40;2.55;;;0.60;;
37777;SDS011;23615;51.506;7.678;2023-03-12T07:14:06;2.08;;;0.70;;
37777;SDS011;23615;51.506;7.678;2023-03-12T07:16:31;2.57;;;1.00;;
37777;SDS011;23615;51.506;7.678;2023-03-12T07:18:56;1.87;;;0.90;;
37777;SDS011;23615;51.506;7.678;2023-03-12T07:21:22;1.75;;;0.80;;
37777;SDS011;23615;51.506;7.678;2023-03-12T07:23:48;1.93;;;0.70;;
37777;SDS011;23615;51.506;7.678;2023-03-12T07:26:14;2.67;;;0.80;;
37777;SDS011;23615;51.506;7.678;2023-03-12T07:28:39;1.50;;;0.70;;
37777;SDS011;23615;51.506;7.678;2023-03-12T07:31:05;1.83;;;0.80;;
37777;SDS011;23615;51.506;7.678;2023-03-12T07:33:31;2.67;;;0.98;;
37777;SDS011;23615;51.506;7.678;2023-03-12T07:35:56;2.80;;;1.30;;
37777;SDS011;23615;51.506;7.678;2023-03-12T07:38:22;1.93;;;0.80;;
37777;SDS011;23615;51.506;7.678;2023-03-12T07:40:51;3.50;;;1.27;;
37777;SDS011;23615;51.506;7.678;2023-03-12T07:43:17;1.52;;;0.90;;
37777;SDS011;23615;51.506;7.678;2023-03-12T07:45:43;2.20;;;1.07;;
37777;SDS011;23615;51.506;7.678;2023-03-12T07:48:08;3.20;;;0.80;;
37777;SDS011;23615;51.506;7.678;2023-03-12T07:50:34;4.10;;;0.97;;
37777;SDS011;23615;51.506;7.678;2023-03-12T07:52:59;1.48;;;0.85;;
37777;SDS011;23615;51.506;7.678;2023-03-12T07:55:25;3.70;;;1.73;;
37777;SDS011;23615;51.506;7.678;2023-03-12T07:57:51;2.40;;;0.95;;
37777;SDS011;23615;51.506;7.678;2023-03-12T08:00:16;3.63;;;1.25;;
37777;SDS011;23615;51.506;7.678;2023-03-12T08:02:41;2.92;;;1.33;;
37777;SDS011;23615;51.506;7.678;2023-03-12T08:05:07;3.07;;;1.20;;
37777;SDS011;23615;51.506;7.678;2023-03-12T08:07:32;2.67;;;1.20;;
37777;SDS011;23615;51.506;7.678;2023-03-12T08:09:59;3.40;;;1.10;;
37777;SDS011;23615;51.506;7.678;2023-03-12T08:12:25;2.30;;;1.33;;
37777;SDS011;23615;51.506;7.678;2023-03-12T08:14:51;2.60;;;1.20;;
37777;SDS011;23615;51.506;7.678;2023-03-12T08:17:16;2.47;;;1.27;;
37777;SDS011;23615;51.506;7.678;2023-03-12T08:19:42;2.33;;;1.33;;
37777;SDS011;23615;51.506;7.678;2023-03-12T08:22:07;2.87;;;1.60;;
37777;SDS011;23615;51.506;7.678;2023-03-12T08:24:32;2.30;;;1.37;;
37777;SDS011;23615;51.506;7.678;2023-03-12T08:26:59;3.28;;;1.63;;
37777;SDS011;23615;51.506;7.678;2023-03-12T08:29:24;3.07;;;1.90;;
37777;SDS011;23615;51.506;7.678;2023-03-12T08:31:49;4.77;;;1.97;;
37777;SDS011;23615;51.506;7.678;2023-03-12T08:34:14;2.50;;;1.67;;
37777;SDS011;23615;51.506;7.678;2023-03-12T08:36:40;2.97;;;1.50;;
37777;SDS011;23615;51.506;7.678;2023-03-12T08:39:05;4.23;;;2.00;;
37777;SDS011;23615;51.506;7.678;2023-03-12T08:41:30;3.07;;;1.30;;
37777;SDS011;23615;51.506;7.678;2023-03-12T08:43:56;2.07;;;1.60;;
37777;SDS011;23615;51.506;7.678;2023-03-12T08:46:21;3.33;;;1.70;;
37777;SDS011;23615;51.506;7.678;2023-03-12T08:48:46;3.38;;;1.60;;
37777;SDS011;23615;51.506;7.678;2023-03-12T08:51:11;2.92;;;1.50;;
37777;SDS011;23615;51.506;7.678;2023-03-12T08:53:37;1.93;;;1.50;;
37777;SDS011;23615;51.506;7.678;2023-03-12T08:56:02;2.35;;;1.60;;
37777;SDS011;23615;51.506;7.678;2023-03-12T08:58:28;2.03;;;1.40;;
37777;SDS011;23615;51.506;7.678;2023-03-12T09:00:54;2.80;;;1.60;;
37777;SDS011;23615;51.506;7.678;2023-03-12T09:03:22;3.40;;;1.67;;
37777;SDS011;23615;51.506;7.678;2023-03-12T09:05:48;2.20;;;1.40;;
37777;SDS011;23615;51.506;7.678;2023-03-12T09:08:14;3.90;;;1.50;;
37777;SDS011;23615;51.506;7.678;2023-03-12T09:10:40;3.00;;;1.60;;
37777;SDS011;23615;51.506;7.678;2023-03-12T09:13:10;2.78;;;1.48;;
37777;SDS011;23615;51.506;7.678;2023-03-12T09:15:36;2.50;;;1.10;;
37777;SDS011;23615;51.506;7.678;2023-03-12T09:18:01;3.20;;;1.33;;
37777;SDS011;23615;51.506;7.678;2023-03-12T09:20:26;3.40;;;1.70;;
37777;SDS011;23615;51.506;7.678;2023-03-12T09:22:51;1.48;;;1.15;;
37777;SDS011;23615;51.506;7.678;2023-03-12T09:25:18;2.00;;;1.40;;
37777;SDS011;23615;51.506;7.678;2023-03-12T09:27:45;2.58;;;1.48;;
37777;SDS011;23615;51.506;7.678;2023-03-12T09:30:15;3.15;;;1.45;;
37777;SDS011;23615;51.506;7.678;2023-03-12T09:32:43;2.28;;;1.65;;
37777;SDS011;23615;51.506;7.678;2023-03-12T09:35:09;2.47;;;1.50;;
37777;SDS011;23615;51.506;7.678;2023-03-12T09:37:35;2.43;;;1.67;;
37777;SDS011;23615;51.506;7.678;2023-03-12T09:40:00;2.20;;;1.80;;
37777;SDS011;23615;51.506;7.678;2023-03-12T09:45:03;2.50;;;1.90;;
37777;SDS011;23615;51.506;7.678;2023-03-12T09:47:32;1.85;;;1.50;;
37777;SDS011;23615;51.506;7.678;2023-03-12T09:52:58;2.95;;;1.85;;
37777;SDS011;23615;51.506;7.678;2023-03-12T09:55:27;3.17;;;1.60;;
37777;SDS011;23615;51.506;7.678;2023-03-12T09:57:59;2.30;;;1.25;;
37777;SDS011;23615;51.506;7.678;2023-03-12T10:00:31;1.90;;;1.07;;
37777;SDS011;23615;51.506;7.678;2023-03-12T10:08:28;1.92;;;1.10;;
37777;SDS011;23615;51.506;7.678;2023-03-12T10:11:09;1.47;;;0.93;;
37777;SDS011;23615;51.506;7.678;2023-03-12T10:25:36;0.90;;;0.90;;
37777;SDS011;23615;51.506;7.678;2023-03-12T10:27:44;1.38;;;0.90;;
37777;SDS011;23615;51.506;7.678;2023-03-12T10:30:19;1.58;;;0.90;;
37777;SDS011;23615;51.506;7.678;2023-03-12T10:32:48;1.75;;;0.93;;
37777;SDS011;23615;51.506;7.678;2023-03-12T10:35:17;2.13;;;0.90;;
37777;SDS011;23615;51.506;7.678;2023-03-12T10:37:53;0.90;;;0.75;;
37777;SDS011;23615;51.506;7.678;2023-03-12T10:40:23;1.00;;;0.80;;
37777;SDS011;23615;51.506;7.678;2023-03-12T10:42:50;1.60;;;0.90;;
37777;SDS011;23615;51.506;7.678;2023-03-12T10:45:21;0.80;;;0.80;;
37777;SDS011;23615;51.506;7.678;2023-03-12T10:47:52;1.00;;;0.90;;
37777;SDS011;23615;51.506;7.678;2023-03-12T10:52:49;1.05;;;0.95;;
37777;SDS011;23615;51.506;7.678;2023-03-12T10:55:35;0.75;;;0.70;;
37777;SDS011;23615;51.506;7.678;2023-03-12T10:58:00;0.80;;;0.80;;
37777;SDS011;23615;51.506;7.678;2023-03-12T11:00:26;1.67;;;0.90;;
37777;SDS011;23615;51.506;7.678;2023-03-12T11:03:00;1.63;;;0.60;;
37777;SDS011;23615;51.506;7.678;2023-03-12T11:05:36;0.50;;;0.50;;
37777;SDS011;23615;51.506;7.678;2023-03-12T11:10:55;0.93;;;0.60;;
37777;SDS011;23615;51.506;7.678;2023-03-12T11:13:43;0.50;;;0.40;;
37777;SDS011;23615;51.506;7.678;2023-03-12T11:18:58;0.50;;;0.50;;
37777;SDS011;23615;51.506;7.678;2023-03-12T11:21:29;0.70;;;0.40;;
37777;SDS011;23615;51.506;7.678;2023-03-12T11:26:21;0.30;;;0.30;;
37777;SDS011;23615;51.506;7.678;2023-03-12T11:28:50;0.30;;;0.30;;
37777;SDS011;23615;51.506;7.678;2023-03-12T11:31:27;0.90;;;0.38;;
37777;SDS011;23615;51.506;7.678;2023-03-12T11:34:00;0.30;;;0.30;;
37777;SDS011;23615;51.506;7.678;2023-03-12T11:44:54;0.43;;;0.32;;
37777;SDS011;23615;51.506;7.678;2023-03-12T11:56:14;1.20;;;0.50;;
37777;SDS011;23615;51.506;7.678;2023-03-12T12:04:27;0.70;;;0.60;;
37777;SDS011;23615;51.506;7.678;2023-03-12T12:09:56;0.80;;;0.70;;
37777;SDS011;23615;51.506;7.678;2023-03-12T12:18:23;1.20;;;1.10;;
37777;SDS011;23615;51.506;7.678;2023-03-12T12:21:18;1.00;;;0.85;;
37777;SDS011;23615;51.506;7.678;2023-03-12T12:24:04;1.20;;;1.10;;
37777;SDS011;23615;51.506;7.678;2023-03-12T12:29:46;1.10;;;0.95;;
37777;SDS011;23615;51.506;7.678;2023-03-12T12:32:26;1.20;;;0.90;;
37777;SDS011;23615;51.506;7.678;2023-03-12T12:43:29;1.05;;;0.90;;
37777;SDS011;23615;51.506;7.678;2023-03-12T12:46:00;2.20;;;1.35;;
37777;SDS011;23615;51.506;7.678;2023-03-12T12:48:40;1.40;;;1.20;;
37777;SDS011;23615;51.506;7.678;2023-03-12T12:51:08;1.93;;;1.57;;
37777;SDS011;23615;51.506;7.678;2023-03-12T12:53:55;1.27;;;1.15;;
37777;SDS011;23615;51.506;7.678;2023-03-12T12:59:35;1.83;;;1.30;;
37777;SDS011;23615;51.506;7.678;2023-03-12T13:02:11;1.25;;;1.15;;
37777;SDS011;23615;51.506;7.678;2023-03-12T13:04:41;1.70;;;1.00;;
37777;SDS011;23615;51.506;7.678;2023-03-12T13:14:49;1.30;;;1.20;;
37777;SDS011;23615;51.506;7.678;2023-03-12T13:17:35;2.50;;;1.30;;
37777;SDS011;23615;51.506;7.678;2023-03-12T13:20:32;1.77;;;1.55;;
37777;SDS011;23615;51.506;7.678;2023-03-12T13:25:57;2.75;;;1.92;;
37777;SDS011;23615;51.506;7.678;2023-03-12T13:36:42;4.00;;;3.30;;
37777;SDS011;23615;51.506;7.678;2023-03-12T13:41:52;4.13;;;2.78;;
37777;SDS011;23615;51.506;7.678;2023-03-12T13:52:01;2.07;;;1.97;;
37777;SDS011;23615;51.506;7.678;2023-03-12T13:54:40;2.20;;;2.00;;
37777;SDS011;23615;51.506;7.678;2023-03-12T13:57:10;2.73;;;2.00;;
37777;SDS011;23615;51.506;7.678;2023-03-12T13:59:47;2.00;;;1.90;;
37777;SDS011;23615;51.506;7.678;2023-03-12T14:02:19;1.75;;;1.65;;
37777;SDS011;23615;51.506;7.678;2023-03-12T14:04:49;2.58;;;1.80;;
37777;SDS011;23615;51.506;7.678;2023-03-12T14:07:25;3.83;;;2.20;;
37777;SDS011;23615;51.506;7.678;2023-03-12T14:10:07;4.80;;;2.75;;
37777;SDS011;23615;51.506;7.678;2023-03-12T14:15:23;5.22;;;3.03;;
37777;SDS011;23615;51.506;7.678;2023-03-12T14:17:58;7.93;;;3.50;;
37777;SDS011;23615;51.506;7.678;2023-03-12T14:20:38;7.43;;;3.70;;
37777;SDS011;23615;51.506;7.678;2023-03-12T14:23:06;8.25;;;3.55;;
37777;SDS011;23615;51.506;7.678;2023-03-12T14:25:46;6.45;;;3.40;;
37777;SDS011;23615;51.506;7.678;2023-03-12T14:28:16;7.53;;;3.58;;
37777;SDS011;23615;51.506;7.678;2023-03-12T14:33:26;7.50;;;4.57;;
37777;SDS011;23615;51.506;7.678;2023-03-12T14:36:18;8.57;;;4.40;;
37777;SDS011;23615;51.506;7.678;2023-03-12T14:38:45;12.07;;;4.47;;
37777;SDS011;23615;51.506;7.678;2023-03-12T14:41:20;8.82;;;4.43;;
37777;SDS011;23615;51.506;7.678;2023-03-12T14:43:50;14.77;;;5.30;;
37777;SDS011;23615;51.506;7.678;2023-03-12T14:46:18;12.27;;;4.78;;
37777;SDS011;23615;51.506;7.678;2023-03-12T14:48:48;15.40;;;5.20;;
37777;SDS011;23615;51.506;7.678;2023-03-12T14:51:19;12.93;;;4.60;;
37777;SDS011;23615;51.506;7.678;2023-03-12T14:53:49;13.18;;;4.45;;
37777;SDS011;23615;51.506;7.678;2023-03-12T14:56:26;14.25;;;4.82;;
37777;SDS011;23615;51.506;7.678;2023-03-12T14:59:01;17.02;;;5.72;;
37777;SDS011;23615;51.506;7.678;2023-03-12T15:01:45;15.60;;;4.90;;
37777;SDS011;23615;51.506;7.678;2023-03-12T15:04:18;15.93;;;6.63;;
37777;SDS011;23615;51.506;7.678;2023-03-12T15:06:47;17.23;;;5.95;;
37777;SDS011;23615;51.506;7.678;2023-03-12T15:09:15;15.10;;;5.68;;
37777;SDS011;23615;51.506;7.678;2023-03-12T15:11:43;15.93;;;5.78;;
37777;SDS011;23615;51.506;7.678;2023-03-12T15:14:17;15.32;;;5.45;;
37777;SDS011;23615;51.506;7.678;2023-03-12T15:16:43;13.10;;;5.03;;
37777;SDS011;23615;51.506;7.678;2023-03-12T15:19:11;16.23;;;5.67;;
37777;SDS011;23615;51.506;7.678;2023-03-12T15:21:37;15.70;;;5.07;;
37777;SDS011;23615;51.506;7.678;2023-03-12T15:24:03;16.97;;;5.30;;
37777;SDS011;23615;51.506;7.678;2023-03-12T15:26:31;16.63;;;5.13;;
37777;SDS011;23615;51.506;7.678;2023-03-12T15:31:50;15.73;;;5.15;;
37777;SDS011;23615;51.506;7.678;2023-03-12T15:34:37;16.17;;;5.50;;
37777;SDS011;23615;51.506;7.678;2023-03-12T15:37:48;16.92;;;4.25;;
37777;SDS011;23615;51.506;7.678;2023-03-12T15:39:56;17.10;;;4.75;;
37777;SDS011;23615;51.506;7.678;2023-03-12T15:42:23;16.73;;;4.43;;
37777;SDS011;23615;51.506;7.678;2023-03-12T15:44:50;14.57;;;4.18;;
37777;SDS011;23615;51.506;7.678;2023-03-12T15:47:19;12.68;;;4.25;;
37777;SDS011;23615;51.506;7.678;2023-03-12T15:49:48;17.48;;;4.40;;
37777;SDS011;23615;51.506;7.678;2023-03-12T15:57:30;12.77;;;3.38;;
37777;SDS011;23615;51.506;7.678;2023-03-12T16:02:36;13.20;;;4.03;;
37777;SDS011;23615;51.506;7.678;2023-03-12T16:05:33;19.90;;;4.35;;
37777;SDS011;23615;51.506;7.678;2023-03-12T16:08:01;13.32;;;4.10;;
37777;SDS011;23615;51.506;7.678;2023-03-12T16:10:36;16.40;;;4.53;;
37777;SDS011;23615;51.506;7.678;2023-03-12T16:13:03;17.67;;;4.87;;
37777;SDS011;23615;51.506;7.678;2023-03-12T16:15:33;15.82;;;4.30;;
37777;SDS011;23615;51.506;7.678;2023-03-12T16:18:00;15.02;;;3.97;;
37777;SDS011;23615;51.506;7.678;2023-03-12T16:20:26;15.97;;;3.70;;
37777;SDS011;23615;51.506;7.678;2023-03-12T16:22:52;13.85;;;2.97;;
37777;SDS011;23615;51.506;7.678;2023-03-12T16:25:17;15.75;;;4.30;;
37777;SDS011;23615;51.506;7.678;2023-03-12T16:27:44;17.95;;;3.90;;
37777;SDS011;23615;51.506;7.678;2023-03-12T16:30:15;19.50;;;4.20;;
37777;SDS011;23615;51.506;7.678;2023-03-12T16:32:44;13.88;;;2.83;;
37777;SDS011;23615;51.506;7.678;2023-03-12T16:35:13;18.23;;;3.73;;
37777;SDS011;23615;51.506;7.678;2023-03-12T16:37:40;19.00;;;3.88;;
37777;SDS011;23615;51.506;7.678;2023-03-12T16:40:06;18.42;;;3.42;;
37777;SDS011;23615;51.506;7.678;2023-03-12T16:42:32;16.05;;;3.60;;
37777;SDS011;23615;51.506;7.678;2023-03-12T16:44:58;18.42;;;4.90;;
37777;SDS011;23615;51.506;7.678;2023-03-12T16:47:24;17.23;;;4.43;;
37777;SDS011;23615;51.506;7.678;2023-03-12T16:49:49;12.15;;;3.13;;
37777;SDS011;23615;51.506;7.678;2023-03-12T16:52:19;16.07;;;3.17;;
37777;SDS011;23615;51.506;7.678;2023-03-12T16:54:47;18.20;;;3.75;;
37777;SDS011;23615;51.506;7.678;2023-03-12T16:57:15;18.38;;;3.50;;
37777;SDS011;23615;51.506;7.678;2023-03-12T16:59:51;15.95;;;3.58;;